Time;durP1;ratioP1;P1;durP2;ratioP2;P2;SDS_P1;SDS_P2;PMS_P1;PMS_P2;Temp;Humidity;BMP_temperature;BMP_pressure;BME280_temperature;BME280_humidity;BME280_pressure;Samples;Min_cycle;Max_cycle;Signal;HPM_P1;HPM_P2
2022/06/01 00:00:37;;;;;;;37.10;34.27;;;9.30;99.90;;;;;;5042021;28;21234;-67
2022/06/01 00:03:05;;;;;;;38.20;35.20;;;9.30;99.90;;;;;;5038932;28;20463;-67
2022/06/01 00:05:31;;;;;;;40.93;36.20;;;9.30;99.90;;;;;;5043315;28;21297;-68
2022/06/01 00:07:59;;;;;;;41.03;37.30;;;9.20;99.90;;;;;;5043584;28;20565;-67
2022/06/01 00:10:27;;;;;;;39.77;35.87;;;9.30;99.90;;;;;;5039202;28;20491;-67
2022/06/01 00:12:56;;;;;;;38.27;34.43;;;9.30;99.90;;;;;;5046562;28;20463;-67
2022/06/01 00:15:24;;;;;;;37.93;34.63;;;9.30;99.90;;;;;;5042438;28;20471;-67
2022/06/01 00:17:51;;;;;;;37.87;34.43;;;9.30;99.90;;;;;;5043557;28;20756;-67
2022/06/01 00:20:19;;;;;;;35.30;32.70;;;9.20;99.90;;;;;;5050968;28;20488;-68
2022/06/01 00:22:46;;;;;;;35.60;32.83;;;9.20;99.90;;;;;;5044673;28;20462;-69
2022/06/01 00:25:14;;;;;;;38.37;34.90;;;9.10;99.90;;;;;;5051137;28;20471;-66
2022/06/01 00:27:41;;;;;;;37.67;34.87;;;9.00;99.90;;;;;;5050326;28;20478;-66
2022/06/01 00:30:13;;;;;;;38.50;35.40;;;8.90;99.90;;;;;;5043075;28;20551;-67
2022/06/01 00:32:41;;;;;;;38.83;35.60;;;8.90;99.90;;;;;;5046665;28;20467;-67
2022/06/01 00:35:09;;;;;;;38.33;35.23;;;8.80;99.90;;;;;;5048437;28;20466;-67
2022/06/01 00:37:36;;;;;;;39.93;36.50;;;8.60;99.90;;;;;;5045198;28;20472;-67
2022/06/01 00:40:04;;;;;;;40.20;36.80;;;8.50;99.90;;;;;;5047080;28;20643;-67
2022/06/01 00:42:33;;;;;;;39.17;35.50;;;8.50;99.90;;;;;;5048663;28;20853;-67
2022/06/01 00:45:00;;;;;;;38.90;35.80;;;8.40;99.90;;;;;;5048553;28;20899;-67
2022/06/01 00:47:29;;;;;;;40.33;37.00;;;8.40;99.90;;;;;;5045724;28;20516;-67
2022/06/01 00:50:01;;;;;;;40.67;36.97;;;8.30;99.90;;;;;;5043842;28;20559;-67
2022/06/01 00:52:38;;;;;;;39.30;36.10;;;8.20;99.90;;;;;;5043828;28;20784;-68
2022/06/01 00:55:11;;;;;;;38.10;35.10;;;8.20;99.90;;;;;;5048412;28;20551;-67
2022/06/01 00:57:38;;;;;;;39.33;35.87;;;8.20;99.90;;;;;;5048946;28;20463;-66
2022/06/01 01:00:12;;;;;;;39.20;35.90;;;8.30;99.90;;;;;;5047477;28;20493;-67
2022/06/01 01:02:40;;;;;;;38.43;34.93;;;8.40;99.90;;;;;;5047856;28;20832;-66
2022/06/01 01:05:11;;;;;;;37.10;34.10;;;8.50;99.90;;;;;;5045657;28;20486;-66
2022/06/01 01:07:39;;;;;;;36.07;33.10;;;8.50;99.90;;;;;;5045529;28;20487;-67
2022/06/01 01:10:07;;;;;;;36.83;33.30;;;8.60;99.90;;;;;;5047152;28;20833;-66
2022/06/01 01:15:16;;;;;;;35.67;32.33;;;8.60;99.90;;;;;;5045355;28;20465;-66
2022/06/01 01:17:45;;;;;;;35.77;31.90;;;8.60;99.90;;;;;;5044794;28;20621;-66
2022/06/01 01:20:12;;;;;;;35.00;32.37;;;8.50;99.90;;;;;;5046260;28;20976;-67
2022/06/01 01:22:47;;;;;;;33.77;31.13;;;8.40;99.90;;;;;;5043593;28;20461;-66
2022/06/01 01:25:23;;;;;;;33.30;30.67;;;8.40;99.90;;;;;;5047194;28;20479;-66
2022/06/01 01:27:53;;;;;;;34.43;31.73;;;8.30;99.90;;;;;;5046191;28;20463;-65
2022/06/01 01:30:49;;;;;;;33.60;30.93;;;8.30;99.90;;;;;;5049396;28;20470;-66
2022/06/01 01:33:19;;;;;;;34.83;32.23;;;8.30;99.90;;;;;;5043574;28;20510;-64
2022/06/01 01:35:49;;;;;;;33.50;30.80;;;8.30;99.90;;;;;;5047545;28;20474;-65
2022/06/01 01:38:21;;;;;;;33.70;30.90;;;8.30;99.90;;;;;;5043093;28;20501;-65
2022/06/01 01:41:02;;;;;;;33.10;30.10;;;8.40;99.90;;;;;;5044967;28;20490;-66
2022/06/01 01:43:31;;;;;;;33.70;30.60;;;8.40;99.90;;;;;;5040678;28;20519;-66
2022/06/01 01:45:58;;;;;;;34.33;31.63;;;8.30;99.90;;;;;;5042236;28;20460;-65
2022/06/01 01:48:25;;;;;;;34.10;31.70;;;8.30;99.90;;;;;;5041861;28;20863;-65
2022/06/01 01:50:54;;;;;;;32.67;29.93;;;8.30;99.90;;;;;;5044961;28;20868;-66
2022/06/01 01:53:21;;;;;;;32.87;30.47;;;8.30;99.90;;;;;;5033315;28;20481;-67
2022/06/01 01:56:02;;;;;;;34.17;31.47;;;8.30;99.90;;;;;;5045587;28;21486;-64
2022/06/01 01:58:37;;;;;;;32.50;29.80;;;8.30;99.90;;;;;;5052723;28;20464;-65
2022/06/01 02:01:10;;;;;;;31.20;28.57;;;8.30;99.90;;;;;;5041697;28;20994;-66
2022/06/01 02:03:42;;;;;;;32.33;29.73;;;8.30;99.90;;;;;;5043465;28;20467;-70
2022/06/01 02:06:14;;;;;;;32.90;30.40;;;8.30;99.90;;;;;;5047097;28;20810;-68
2022/06/01 02:08:47;;;;;;;33.13;29.90;;;8.20;99.90;;;;;;5045550;28;20985;-68
2022/06/01 02:14:10;;;;;;;32.10;29.63;;;8.10;99.90;;;;;;5043854;28;20467;-68
2022/06/01 02:16:43;;;;;;;31.50;29.20;;;8.00;99.90;;;;;;5042587;28;20955;-69
2022/06/01 02:19:16;;;;;;;31.43;29.13;;;7.90;99.90;;;;;;5037078;28;20910;-67
2022/06/01 02:21:44;;;;;;;32.00;29.50;;;7.90;99.90;;;;;;5033916;28;20466;-67
2022/06/01 02:24:10;;;;;;;30.50;28.27;;;7.90;99.90;;;;;;5049173;28;20483;-68
2022/06/01 02:26:39;;;;;;;31.50;29.20;;;8.00;99.90;;;;;;5043286;28;20818;-67
2022/06/01 02:29:09;;;;;;;30.97;28.57;;;7.90;99.90;;;;;;5045782;28;20486;-68
2022/06/01 02:31:38;;;;;;;30.63;28.33;;;7.80;99.90;;;;;;5043068;28;20491;-68
2022/06/01 02:34:08;;;;;;;31.17;28.87;;;7.90;99.90;;;;;;5046679;28;20465;-67
2022/06/01 02:36:35;;;;;;;29.50;27.30;;;7.90;99.90;;;;;;5039106;28;20467;-66
2022/06/01 02:39:04;;;;;;;29.37;27.20;;;7.80;99.90;;;;;;5039185;28;20494;-67
2022/06/01 02:44:18;;;;;;;29.70;27.23;;;7.90;99.90;;;;;;5047835;28;20831;-67
2022/06/01 02:46:46;;;;;;;29.27;26.70;;;8.00;99.90;;;;;;5047688;28;20470;-67
2022/06/01 02:49:13;;;;;;;29.27;27.07;;;8.10;99.90;;;;;;5044138;28;20569;-67
2022/06/01 02:51:41;;;;;;;31.03;28.33;;;8.10;99.90;;;;;;5047014;28;20471;-68
2022/06/01 02:54:09;;;;;;;29.20;26.80;;;8.10;99.90;;;;;;5040404;28;20507;-67
2022/06/01 02:56:36;;;;;;;27.53;25.13;;;8.10;99.90;;;;;;5041880;28;20814;-68
2022/06/01 02:59:04;;;;;;;27.90;24.97;;;8.00;99.90;;;;;;5043095;28;20529;-67
2022/06/01 03:01:33;;;;;;;28.47;26.27;;;8.00;99.90;;;;;;5042966;28;20454;-68
2022/06/01 03:04:00;;;;;;;29.33;26.47;;;8.00;99.90;;;;;;5043731;28;20496;-67
2022/06/01 03:06:26;;;;;;;29.17;26.60;;;8.00;99.90;;;;;;5045475;28;20460;-68
2022/06/01 03:08:54;;;;;;;29.97;27.53;;;8.00;99.90;;;;;;5041424;28;20499;-67
2022/06/01 03:11:21;;;;;;;30.33;27.47;;;8.00;99.90;;;;;;5043247;28;20881;-68
2022/06/01 03:13:47;;;;;;;33.03;28.60;;;8.00;99.90;;;;;;5040098;28;20891;-67
2022/06/01 03:16:14;;;;;;;30.60;27.40;;;8.00;99.90;;;;;;5045201;28;21117;-67
2022/06/01 03:18:42;;;;;;;29.33;27.00;;;7.90;99.90;;;;;;5034675;28;20488;-68
2022/06/01 03:21:10;;;;;;;30.80;28.40;;;7.90;99.90;;;;;;5042331;28;20482;-67
2022/06/01 03:23:38;;;;;;;29.70;27.10;;;7.90;99.90;;;;;;5045445;28;20865;-68
2022/06/01 03:26:05;;;;;;;30.40;27.90;;;7.90;99.90;;;;;;5044233;28;20466;-68
2022/06/01 03:28:32;;;;;;;30.83;28.17;;;7.90;99.90;;;;;;5036412;28;20461;-67
2022/06/01 03:31:00;;;;;;;28.93;26.83;;;7.90;99.90;;;;;;5034238;28;21067;-67
2022/06/01 03:33:27;;;;;;;31.10;28.67;;;7.90;99.90;;;;;;5042775;28;20471;-69
2022/06/01 03:35:55;;;;;;;29.87;27.60;;;7.90;99.90;;;;;;5042402;28;20470;-66
2022/06/01 03:38:22;;;;;;;30.30;28.00;;;7.80;99.90;;;;;;5041967;28;20475;-65
2022/06/01 03:40:49;;;;;;;30.30;27.90;;;7.90;99.90;;;;;;5044200;28;20462;-65
2022/06/01 03:43:15;;;;;;;32.07;28.70;;;8.00;99.90;;;;;;5041018;28;20481;-65
2022/06/01 03:45:58;;;;;;;30.80;28.23;;;8.00;99.90;;;;;;5071483;28;21423;-66
2022/06/01 03:48:27;;;;;;;30.90;28.10;;;8.00;99.90;;;;;;5064281;28;20560;-66
2022/06/01 03:50:56;;;;;;;31.53;29.00;;;8.00;99.90;;;;;;5062764;28;20473;-66
2022/06/01 03:53:24;;;;;;;29.53;27.33;;;8.00;99.90;;;;;;5068308;28;20546;-66
2022/06/01 03:55:52;;;;;;;30.33;27.90;;;8.00;99.90;;;;;;5066243;28;20459;-68
2022/06/01 03:58:22;;;;;;;30.40;27.80;;;8.10;99.90;;;;;;5073478;28;20465;-70
2022/06/01 04:00:50;;;;;;;31.27;28.17;;;8.10;99.90;;;;;;5066700;28;20547;-67
2022/06/01 04:03:18;;;;;;;30.17;27.67;;;8.10;99.90;;;;;;5052293;28;20986;-68
2022/06/01 04:05:45;;;;;;;30.97;28.47;;;8.10;99.90;;;;;;5028703;28;20552;-68
2022/06/01 04:08:13;;;;;;;29.63;27.20;;;8.10;99.90;;;;;;5025311;28;21106;-69
2022/06/01 04:10:43;;;;;;;31.40;29.00;;;8.20;99.90;;;;;;5029053;28;20498;-68
2022/06/01 04:13:10;;;;;;;30.73;28.00;;;8.20;99.90;;;;;;5024854;28;20545;-67
2022/06/01 04:15:36;;;;;;;31.40;28.73;;;8.20;99.90;;;;;;5026296;28;20469;-68
2022/06/01 04:18:03;;;;;;;31.10;28.70;;;8.10;99.90;;;;;;5027250;28;20475;-69
2022/06/01 04:20:30;;;;;;;32.60;29.53;;;8.30;99.90;;;;;;5027726;28;20466;-68
2022/06/01 04:23:00;;;;;;;32.00;29.40;;;8.20;99.90;;;;;;5025702;28;20962;-68
2022/06/01 04:25:30;;;;;;;30.00;27.43;;;8.20;99.90;;;;;;5027344;28;20459;-68
2022/06/01 04:27:56;;;;;;;31.57;28.77;;;8.20;99.90;;;;;;5026666;28;20462;-69
2022/06/01 04:30:23;;;;;;;32.37;29.87;;;8.30;99.90;;;;;;5027554;28;20502;-67
2022/06/01 04:32:52;;;;;;;30.87;28.10;;;8.30;99.90;;;;;;5027217;28;20830;-66
2022/06/01 04:35:21;;;;;;;29.53;27.20;;;8.40;99.90;;;;;;5027186;28;20473;-69
2022/06/01 04:37:48;;;;;;;31.87;29.07;;;8.50;99.90;;;;;;5023847;28;21093;-68
2022/06/01 04:40:16;;;;;;;29.90;27.07;;;8.50;99.90;;;;;;5026058;28;20468;-67
2022/06/01 04:42:44;;;;;;;30.13;27.60;;;8.60;99.90;;;;;;5027595;28;20502;-70
2022/06/01 04:45:14;;;;;;;30.27;27.70;;;8.60;99.90;;;;;;5028330;28;20463;-68
2022/06/01 04:47:41;;;;;;;31.07;28.50;;;8.60;99.90;;;;;;5028561;28;20462;-68
2022/06/01 04:50:10;;;;;;;28.73;26.27;;;8.80;99.90;;;;;;5028632;28;20511;-68
2022/06/01 04:52:37;;;;;;;28.67;26.07;;;8.80;99.90;;;;;;5027197;28;20467;-69
2022/06/01 04:55:07;;;;;;;29.97;27.27;;;8.80;99.90;;;;;;5028383;28;20739;-68
2022/06/01 04:57:33;;;;;;;28.40;26.10;;;8.90;99.90;;;;;;5026740;28;20474;-67
2022/06/01 05:00:02;;;;;;;31.10;28.30;;;8.90;99.90;;;;;;5027030;28;20553;-66
2022/06/01 05:02:28;;;;;;;28.43;26.03;;;8.90;99.90;;;;;;5025072;28;20571;-65
2022/06/01 05:04:55;;;;;;;28.80;26.60;;;9.10;99.90;;;;;;5040838;28;20498;-65
2022/06/01 05:07:22;;;;;;;30.33;27.60;;;9.10;99.90;;;;;;5061687;28;21032;-65
2022/06/01 05:09:49;;;;;;;29.70;27.17;;;9.20;99.90;;;;;;5071787;28;20505;-66
2022/06/01 05:12:16;;;;;;;30.83;27.90;;;9.20;99.90;;;;;;5071127;28;20465;-65
2022/06/01 05:14:43;;;;;;;28.20;25.80;;;9.30;99.90;;;;;;5048985;28;20829;-65
2022/06/01 05:17:11;;;;;;;28.97;26.23;;;9.30;99.90;;;;;;5047142;28;20458;-65
2022/06/01 05:19:38;;;;;;;27.93;25.43;;;9.40;99.90;;;;;;5048506;28;20474;-66
2022/06/01 05:22:05;;;;;;;28.10;26.00;;;9.40;99.90;;;;;;5047937;28;20461;-65
2022/06/01 05:24:32;;;;;;;28.90;26.50;;;9.40;99.90;;;;;;5047125;28;21094;-66
2022/06/01 05:26:59;;;;;;;27.13;25.00;;;9.50;99.90;;;;;;5048112;28;20469;-65
2022/06/01 05:29:26;;;;;;;29.53;27.33;;;9.60;99.90;;;;;;5047238;28;20490;-65
2022/06/01 05:31:52;;;;;;;27.37;25.03;;;9.70;99.90;;;;;;5046898;28;20708;-67
2022/06/01 05:34:21;;;;;;;25.80;23.80;;;9.70;99.90;;;;;;5047643;28;20480;-66
2022/06/01 05:36:48;;;;;;;25.63;23.57;;;9.90;99.90;;;;;;5045070;28;20458;-66
2022/06/01 05:39:15;;;;;;;25.30;22.90;;;9.90;99.90;;;;;;5045191;28;20852;-67
2022/06/01 05:41:42;;;;;;;23.20;21.40;;;10.10;99.90;;;;;;5045426;28;20458;-66
2022/06/01 05:44:08;;;;;;;22.77;20.40;;;10.10;99.90;;;;;;5047262;28;20470;-66
2022/06/01 05:46:36;;;;;;;22.03;20.30;;;10.00;99.90;;;;;;5048220;28;20466;-66
2022/06/01 05:49:03;;;;;;;24.07;18.93;;;10.20;99.90;;;;;;5047558;28;20960;-67
2022/06/01 05:51:31;;;;;;;19.87;17.87;;;10.20;99.90;;;;;;5045510;28;20585;-66
2022/06/01 05:53:58;;;;;;;19.57;18.17;;;10.30;99.90;;;;;;5046288;28;20584;-65
2022/06/01 05:56:24;;;;;;;20.87;18.97;;;10.40;99.90;;;;;;5045536;28;20885;-67
2022/06/01 05:58:51;;;;;;;17.57;16.07;;;10.40;99.90;;;;;;5044493;28;20813;-66
2022/06/01 06:01:22;;;;;;;19.20;17.60;;;10.40;99.90;;;;;;5043081;28;20480;-67
2022/06/01 06:03:49;;;;;;;25.80;18.63;;;10.50;99.90;;;;;;5043510;28;20491;-66
2022/06/01 06:06:16;;;;;;;19.17;17.47;;;10.60;99.90;;;;;;5058157;28;21083;-65
2022/06/01 06:08:49;;;;;;;20.27;16.93;;;10.80;99.90;;;;;;5060769;28;20467;-66
2022/06/01 06:11:16;;;;;;;16.83;15.50;;;10.90;99.90;;;;;;5053347;28;20910;-66
2022/06/01 06:13:43;;;;;;;17.70;15.57;;;11.00;99.90;;;;;;5043053;28;20997;-68
2022/06/01 06:16:11;;;;;;;16.90;15.60;;;11.10;99.90;;;;;;5066873;28;20482;-67
2022/06/01 06:18:38;;;;;;;17.30;14.83;;;11.20;99.90;;;;;;5065449;28;20466;-67
2022/06/01 06:21:05;;;;;;;20.33;14.90;;;11.30;99.90;;;;;;5044770;28;20462;-67
2022/06/01 06:23:33;;;;;;;16.10;14.80;;;11.40;99.90;;;;;;5043412;28;20998;-67
2022/06/01 06:26:01;;;;;;;19.03;15.47;;;11.60;99.90;;;;;;5043750;28;21295;-68
2022/06/01 06:28:29;;;;;;;18.80;16.80;;;11.80;99.90;;;;;;5044435;28;21054;-68
2022/06/01 06:30:56;;;;;;;17.83;16.10;;;12.00;99.90;;;;;;5044466;28;20501;-67
2022/06/01 06:33:23;;;;;;;20.40;18.20;;;12.30;99.90;;;;;;5043529;28;20464;-67
2022/06/01 06:35:58;;;;;;;17.60;15.90;;;12.50;99.90;;;;;;5044764;28;20466;-67
2022/06/01 06:38:28;;;;;;;16.47;14.87;;;12.60;99.90;;;;;;5045047;28;20995;-65
2022/06/01 06:40:55;;;;;;;15.47;13.97;;;12.50;99.90;;;;;;5044655;28;20462;-67
2022/06/01 06:43:25;;;;;;;18.80;15.80;;;12.80;99.90;;;;;;5045048;28;21381;-66
2022/06/01 06:45:52;;;;;;;17.70;16.10;;;13.20;99.90;;;;;;5054590;28;20508;-66
2022/06/01 06:48:19;;;;;;;17.93;14.23;;;13.30;99.90;;;;;;5042621;28;20987;-67
2022/06/01 06:50:46;;;;;;;15.63;14.37;;;13.60;99.90;;;;;;5045496;28;20491;-66
2022/06/01 06:53:13;;;;;;;16.40;14.90;;;13.80;99.90;;;;;;5044145;28;20961;-67
2022/06/01 06:55:40;;;;;;;16.17;14.60;;;14.00;99.90;;;;;;5038465;28;20966;-65
2022/06/01 06:58:09;;;;;;;16.53;14.83;;;13.90;99.90;;;;;;5040367;28;21055;-65
2022/06/01 07:00:37;;;;;;;16.17;14.73;;;14.00;99.90;;;;;;5040335;28;20470;-66
2022/06/01 07:03:05;;;;;;;15.80;14.50;;;14.00;99.90;;;;;;5042674;28;20973;-67
2022/06/01 07:08:17;;;;;;;17.47;15.50;;;14.50;99.90;;;;;;5043121;28;20504;-66
2022/06/01 07:10:44;;;;;;;17.70;16.20;;;14.70;99.90;;;;;;5041912;28;21032;-66
2022/06/01 07:13:11;;;;;;;18.17;16.43;;;14.60;99.90;;;;;;5042202;28;21104;-67
2022/06/01 07:15:39;;;;;;;16.73;15.20;;;14.60;99.90;;;;;;5041863;28;20469;-65
2022/06/01 07:18:07;;;;;;;18.10;16.43;;;14.50;99.90;;;;;;5042099;28;20467;-67
2022/06/01 07:20:34;;;;;;;23.63;16.33;;;14.40;99.90;;;;;;5040892;28;20470;-66
2022/06/01 07:23:01;;;;;;;18.30;16.93;;;14.50;99.90;;;;;;5044071;28;20545;-67
2022/06/01 07:25:28;;;;;;;17.20;15.77;;;14.40;99.90;;;;;;5045136;28;21031;-66
2022/06/01 07:27:56;;;;;;;17.50;16.10;;;14.50;99.90;;;;;;5048057;28;20466;-65
2022/06/01 07:30:23;;;;;;;18.87;17.33;;;14.40;99.90;;;;;;5046214;28;20485;-66
2022/06/01 07:32:52;;;;;;;17.30;15.80;;;14.40;99.90;;;;;;5047536;28;20471;-66
2022/06/01 07:35:20;;;;;;;18.10;16.53;;;14.40;99.90;;;;;;5047015;28;20997;-66
2022/06/01 07:43:17;;;;;;;19.07;17.67;;;14.50;99.90;;;;;;5046330;28;20902;-67
2022/06/01 07:45:46;;;;;;;17.27;16.10;;;14.30;99.90;;;;;;5046799;28;20450;-66
2022/06/01 07:48:14;;;;;;;19.83;17.20;;;14.30;99.90;;;;;;5046930;28;21107;-66
2022/06/01 07:50:41;;;;;;;18.77;17.23;;;14.40;99.90;;;;;;5047333;28;20475;-67
2022/06/01 07:53:09;;;;;;;18.87;16.43;;;14.60;99.90;;;;;;5046636;28;20470;-67
2022/06/01 07:55:38;;;;;;;16.70;15.50;;;14.80;99.90;;;;;;5046447;28;20493;-68
2022/06/01 07:58:05;;;;;;;17.10;16.00;;;14.90;99.90;;;;;;5049016;28;20506;-68
2022/06/01 08:00:32;;;;;;;18.10;16.80;;;15.00;99.90;;;;;;5070308;28;20466;-67
2022/06/01 08:02:59;;;;;;;17.00;15.80;;;15.00;99.90;;;;;;5056888;28;20812;-67
2022/06/01 08:05:28;;;;;;;17.23;15.77;;;15.20;99.90;;;;;;5043679;28;20843;-66
2022/06/01 08:07:55;;;;;;;17.80;16.57;;;15.40;99.90;;;;;;5044191;28;20474;-67
2022/06/01 08:10:22;;;;;;;18.37;17.13;;;15.60;99.90;;;;;;5042928;28;20506;-68
2022/06/01 08:13:06;;;;;;;17.50;16.27;;;15.50;99.90;;;;;;5044105;28;20469;-67
2022/06/01 08:15:35;;;;;;;18.07;16.13;;;15.90;99.90;;;;;;5043926;28;20594;-67
2022/06/01 08:18:02;;;;;;;18.60;17.30;;;16.80;99.90;;;;;;5044552;28;20486;-68
2022/06/01 08:20:31;;;;;;;17.80;16.00;;;16.90;99.90;;;;;;5045630;28;20451;-68
2022/06/01 08:22:59;;;;;;;17.57;16.10;;;17.40;99.90;;;;;;5044162;28;20861;-66
2022/06/01 08:25:27;;;;;;;17.30;16.10;;;17.30;99.90;;;;;;5045365;28;21335;-67
2022/06/01 08:27:54;;;;;;;17.63;16.27;;;17.90;99.90;;;;;;5045126;28;20552;-67
2022/06/01 08:30:23;;;;;;;17.27;16.30;;;18.40;99.90;;;;;;5045344;28;20482;-67
2022/06/01 08:32:50;;;;;;;17.73;16.70;;;18.30;99.90;;;;;;5044803;28;22511;-68
2022/06/01 08:35:20;;;;;;;17.53;16.33;;;17.90;99.90;;;;;;5045626;28;20473;-67
2022/06/01 08:37:48;;;;;;;17.70;16.47;;;18.40;99.90;;;;;;5046487;28;20508;-66
2022/06/01 08:40:18;;;;;;;17.83;16.60;;;19.00;99.90;;;;;;5045078;28;20494;-66
2022/06/01 08:42:52;;;;;;;19.27;17.83;;;18.90;99.90;;;;;;5045780;28;20462;-66
2022/06/01 08:45:22;;;;;;;17.80;16.73;;;18.40;99.90;;;;;;5044019;28;20474;-67
2022/06/01 08:47:50;;;;;;;18.17;17.00;;;18.30;99.90;;;;;;5043449;28;20466;-66
2022/06/01 08:50:22;;;;;;;18.83;17.10;;;18.30;99.90;;;;;;5043618;28;20946;-66
2022/06/01 08:52:50;;;;;;;17.00;15.90;;;18.60;99.90;;;;;;5042117;28;20484;-66
2022/06/01 08:55:17;;;;;;;17.93;16.43;;;18.70;99.90;;;;;;5044458;28;21181;-66
2022/06/01 08:57:50;;;;;;;17.73;16.63;;;19.00;99.90;;;;;;5044423;28;20461;-65
2022/06/01 09:00:19;;;;;;;17.70;16.40;;;18.90;99.90;;;;;;5045451;28;21015;-67
2022/06/01 09:02:54;;;;;;;16.80;15.90;;;18.70;99.90;;;;;;5045229;28;20478;-68
2022/06/01 09:05:26;;;;;;;17.23;15.90;;;19.00;99.90;;;;;;5027131;28;20493;-67
2022/06/01 09:08:00;;;;;;;16.60;15.70;;;19.80;99.90;;;;;;5025717;28;20469;-67
2022/06/01 09:10:43;;;;;;;18.13;16.83;;;19.60;99.90;;;;;;5026235;28;20900;-67
2022/06/01 09:13:15;;;;;;;17.33;16.33;;;20.00;99.90;;;;;;5024981;28;20830;-66
2022/06/01 09:15:47;;;;;;;17.97;16.70;;;19.70;99.90;;;;;;5024627;28;20468;-66
2022/06/01 09:18:17;;;;;;;17.47;16.33;;;19.50;99.90;;;;;;5025165;28;21166;-65
2022/06/01 09:23:31;;;;;;;17.40;16.20;;;18.90;99.90;;;;;;5020162;28;20475;-67
2022/06/01 09:25:59;;;;;;;16.80;15.90;;;19.60;99.90;;;;;;5018675;28;20460;-66
2022/06/01 09:28:28;;;;;;;17.87;16.73;;;20.10;99.90;;;;;;5021337;28;20482;-66
2022/06/01 09:30:59;;;;;;;18.23;16.53;;;19.70;99.90;;;;;;5020287;28;20483;-67
2022/06/01 09:33:30;;;;;;;17.30;15.90;;;19.60;99.90;;;;;;5019479;28;20467;-67
2022/06/01 09:36:03;;;;;;;17.03;15.97;;;19.70;99.90;;;;;;5019022;28;20840;-66
2022/06/01 09:38:42;;;;;;;17.30;16.13;;;19.50;99.90;;;;;;5023825;28;20962;-67
2022/06/01 09:41:12;;;;;;;17.13;16.07;;;19.50;99.90;;;;;;5022423;28;20465;-68
2022/06/01 09:43:41;;;;;;;17.40;16.20;;;20.10;99.90;;;;;;5022158;28;20555;-68
2022/06/01 09:46:08;;;;;;;17.00;16.00;;;20.50;99.90;;;;;;5022557;28;22467;-68
2022/06/01 09:48:38;;;;;;;16.93;15.90;;;21.40;99.70;;;;;;5022809;28;20458;-67
2022/06/01 09:51:15;;;;;;;17.43;16.23;;;22.00;99.60;;;;;;5021221;28;20492;-68
2022/06/01 09:53:45;;;;;;;16.83;16.03;;;22.30;98.00;;;;;;5022865;28;20473;-69
2022/06/01 09:56:17;;;;;;;17.00;16.10;;;22.20;95.60;;;;;;5020728;28;20486;-67
2022/06/01 10:07:01;;;;;;;17.00;15.90;;;20.80;96.50;;;;;;5021508;28;20507;-72
2022/06/01 10:09:31;;;;;;;16.90;15.83;;;20.50;99.50;;;;;;5022332;28;20464;-69
2022/06/01 10:11:58;;;;;;;17.30;16.07;;;21.00;97.30;;;;;;5020953;28;20499;-66
2022/06/01 10:14:31;;;;;;;16.50;15.50;;;21.00;96.40;;;;;;5017393;28;20467;-68
2022/06/01 10:17:09;;;;;;;17.80;16.50;;;20.80;95.70;;;;;;5017086;28;21008;-69
2022/06/01 10:19:40;;;;;;;16.20;15.30;;;20.60;97.10;;;;;;5017672;28;20537;-67
2022/06/01 10:22:13;;;;;;;16.10;15.27;;;20.50;96.20;;;;;;5015740;28;20459;-68
2022/06/01 10:24:47;;;;;;;17.30;15.90;;;20.70;97.60;;;;;;5019700;28;20511;-67
2022/06/01 10:27:15;;;;;;;15.60;14.80;;;20.10;96.30;;;;;;5020510;28;20466;-66
2022/06/01 10:29:45;;;;;;;17.37;16.10;;;20.00;97.90;;;;;;5025944;28;20452;-67
2022/06/01 10:32:19;;;;;;;15.40;14.60;;;20.50;95.40;;;;;;5022510;28;20502;-68
2022/06/01 10:34:49;;;;;;;16.40;15.47;;;20.20;95.90;;;;;;5022631;28;20466;-67
2022/06/01 10:37:23;;;;;;;15.63;14.73;;;20.30;94.70;;;;;;5021836;28;20470;-67
2022/06/01 10:39:55;;;;;;;16.50;15.60;;;20.40;94.30;;;;;;5018272;28;21113;-66
2022/06/01 10:43:16;;;;;;;16.30;15.20;;;20.90;94.00;;;;;;5022216;28;21098;-66
2022/06/01 10:45:16;;;;;;;16.10;15.30;;;21.30;95.50;;;;;;5022686;28;20452;-68
2022/06/01 10:47:54;;;;;;;16.00;15.10;;;21.70;93.50;;;;;;5023088;28;20903;-67
2022/06/01 10:50:26;;;;;;;16.37;15.47;;;21.90;93.60;;;;;;5021983;28;20470;-66
2022/06/01 10:53:03;;;;;;;16.13;14.97;;;22.00;94.10;;;;;;5022085;28;22479;-67
2022/06/01 10:55:36;;;;;;;16.73;15.73;;;22.50;91.80;;;;;;5021981;28;20463;-67
2022/06/01 10:58:04;;;;;;;16.27;15.47;;;22.60;90.70;;;;;;5021264;28;21574;-68
2022/06/01 11:00:33;;;;;;;16.40;15.60;;;22.60;92.40;;;;;;5017514;28;20481;-67
2022/06/01 11:03:32;;;;;;;16.90;15.83;;;22.70;91.30;;;;;;5020225;28;20463;-67
2022/06/01 11:06:10;;;;;;;16.87;15.97;;;22.70;90.40;;;;;;5029512;28;20487;-66
2022/06/01 11:08:49;;;;;;;16.50;15.50;;;23.20;90.40;;;;;;5046557;28;20815;-67
2022/06/01 11:11:25;;;;;;;17.30;16.40;;;23.10;90.30;;;;;;5046522;28;20617;-67
2022/06/01 11:14:27;;;;;;;17.40;16.13;;;22.40;90.40;;;;;;5022346;28;20970;-67
2022/06/01 11:16:58;;;;;;;16.13;15.30;;;22.30;90.80;;;;;;4994334;28;20461;-67
2022/06/01 11:19:41;;;;;;;16.83;15.90;;;22.10;91.10;;;;;;5020357;28;21234;-69
2022/06/01 11:22:25;;;;;;;16.80;15.87;;;22.70;90.90;;;;;;5020440;28;20545;-67
2022/06/01 11:25:04;;;;;;;16.70;15.80;;;23.00;92.50;;;;;;5021615;28;20473;-68
2022/06/01 11:27:50;;;;;;;17.33;16.33;;;22.60;87.50;;;;;;5021961;28;20460;-68
2022/06/01 11:30:20;;;;;;;17.27;16.27;;;22.50;88.30;;;;;;5022153;28;20478;-68
2022/06/01 11:32:55;;;;;;;16.70;15.43;;;21.80;87.60;;;;;;5021732;28;20491;-67
2022/06/01 11:35:30;;;;;;;16.00;15.10;;;21.20;90.50;;;;;;5022665;28;20869;-68
2022/06/01 11:38:04;;;;;;;16.00;15.20;;;20.90;92.00;;;;;;5021936;28;20481;-69
2022/06/01 11:40:49;;;;;;;16.13;15.23;;;20.90;91.30;;;;;;5021809;28;21294;-69
2022/06/01 11:43:27;;;;;;;16.20;15.40;;;20.90;90.90;;;;;;5020984;28;20739;-68
2022/06/01 11:45:59;;;;;;;16.60;15.70;;;20.20;92.60;;;;;;5022093;28;20590;-67
2022/06/01 11:48:30;;;;;;;16.10;15.30;;;19.90;93.20;;;;;;5021446;28;20471;-68
2022/06/01 11:51:14;;;;;;;16.53;15.50;;;19.70;94.70;;;;;;5032610;28;20463;-67
2022/06/01 11:53:47;;;;;;;18.40;16.87;;;19.30;94.80;;;;;;5040095;28;20467;-67
2022/06/01 11:56:24;;;;;;;18.77;17.57;;;18.90;97.80;;;;;;5048325;28;20557;-66
2022/06/01 11:59:14;;;;;;;18.77;17.10;;;18.60;99.90;;;;;;5037636;28;20452;-67
2022/06/01 12:02:01;;;;;;;23.83;21.40;;;17.70;99.90;;;;;;5021890;28;20482;-67
2022/06/01 12:04:33;;;;;;;25.97;24.03;;;17.10;99.90;;;;;;5014357;28;20519;-66
2022/06/01 12:07:06;;;;;;;27.40;25.20;;;16.40;99.90;;;;;;5010629;28;20463;-67
2022/06/01 12:09:44;;;;;;;26.17;23.93;;;15.80;99.90;;;;;;5013681;28;20460;-67
2022/06/01 12:12:46;;;;;;;26.30;23.90;;;15.40;99.90;;;;;;5014432;28;20558;-67
2022/06/01 12:15:23;;;;;;;25.47;22.97;;;15.30;99.90;;;;;;5013706;28;20947;-64
2022/06/01 12:18:20;;;;;;;22.07;20.43;;;15.30;99.90;;;;;;5013644;28;20835;-67
2022/06/01 12:20:51;;;;;;;21.73;19.63;;;15.50;99.90;;;;;;5018752;28;20962;-67
2022/06/01 12:29:39;;;;;;;17.13;16.10;;;15.40;99.90;;;;;;5012741;28;20455;-69
2022/06/01 12:32:15;;;;;;;20.57;18.90;;;15.20;99.90;;;;;;5013093;28;20491;-67
2022/06/01 12:35:00;;;;;;;28.50;25.50;;;15.10;99.90;;;;;;5013434;28;21150;-67
2022/06/01 12:37:35;;;;;;;25.67;23.67;;;14.30;99.90;;;;;;5013149;28;20541;-67
2022/06/01 12:40:05;;;;;;;24.90;23.00;;;13.50;99.90;;;;;;5013505;28;20545;-66
2022/06/01 12:42:35;;;;;;;22.83;21.20;;;12.90;99.90;;;;;;5011907;28;20472;-68
2022/06/01 12:45:05;;;;;;;21.07;19.67;;;12.70;99.90;;;;;;5013663;28;20533;-67
2022/06/01 12:47:37;;;;;;;20.40;19.10;;;12.60;99.90;;;;;;5012798;28;20467;-67
2022/06/01 12:50:10;;;;;;;19.10;17.90;;;12.70;99.90;;;;;;5011365;28;21554;-67
2022/06/01 12:52:37;;;;;;;17.50;16.27;;;13.00;99.90;;;;;;5010868;28;20591;-68
2022/06/01 12:55:07;;;;;;;15.37;14.40;;;14.00;99.90;;;;;;5013097;28;20464;-69
2022/06/01 12:57:39;;;;;;;15.40;14.40;;;15.40;99.90;;;;;;5013905;28;21255;-69
2022/06/01 13:00:09;;;;;;;17.07;15.97;;;16.90;99.90;;;;;;5012075;28;21390;-68
2022/06/01 13:02:39;;;;;;;18.47;17.37;;;18.10;99.90;;;;;;5012933;28;20510;-66
2022/06/01 13:05:11;;;;;;;19.10;18.00;;;18.80;99.90;;;;;;5033528;28;21107;-68
2022/06/01 13:07:45;;;;;;;18.80;17.80;;;19.30;99.90;;;;;;5041472;28;20477;-66
2022/06/01 13:10:18;;;;;;;19.73;18.43;;;20.00;99.90;;;;;;5041994;28;20945;-68
2022/06/01 13:12:45;;;;;;;18.30;17.30;;;19.70;99.90;;;;;;5040765;28;20585;-68
2022/06/01 13:15:17;;;;;;;18.53;17.50;;;19.20;99.90;;;;;;5043519;28;20467;-69
2022/06/01 13:17:53;;;;;;;19.70;18.60;;;18.80;99.90;;;;;;5042379;28;20593;-68
2022/06/01 13:20:25;;;;;;;19.77;18.67;;;18.80;99.90;;;;;;5044019;28;20466;-69